sensor_id;sensor_type;location;lat;lon;timestamp;temperature;humidity
22436;DHT22;11385;50.822;4.324;2024-02-15T00:00:30;13.50;99.90
22436;DHT22;11385;50.822;4.324;2024-02-15T00:02:57;13.50;99.90
22436;DHT22;11385;50.822;4.324;2024-02-15T00:05:24;13.40;99.90
22436;DHT22;11385;50.822;4.324;2024-02-15T00:07:51;13.40;99.90
22436;DHT22;11385;50.822;4.324;2024-02-15T00:10:18;13.40;99.90
22436;DHT22;11385;50.822;4.324;2024-02-15T00:12:47;13.50;99.90
22436;DHT22;11385;50.822;4.324;2024-02-15T00:15:13;13.50;99.90
22436;DHT22;11385;50.822;4.324;2024-02-15T00:17:40;13.60;99.90
22436;DHT22;11385;50.822;4.324;2024-02-15T00:20:07;13.70;99.90
22436;DHT22;11385;50.822;4.324;2024-02-15T00:22:36;13.70;99.90
22436;DHT22;11385;50.822;4.324;2024-02-15T00:25:04;13.60;99.90
22436;DHT22;11385;50.822;4.324;2024-02-15T00:27:32;13.60;99.90
22436;DHT22;11385;50.822;4.324;2024-02-15T00:30:01;13.60;99.90
22436;DHT22;11385;50.822;4.324;2024-02-15T00:32:28;13.50;99.90
22436;DHT22;11385;50.822;4.324;2024-02-15T00:34:54;13.40;99.90
22436;DHT22;11385;50.822;4.324;2024-02-15T00:37:21;13.30;99.90
22436;DHT22;11385;50.822;4.324;2024-02-15T00:39:48;13.30;99.90
22436;DHT22;11385;50.822;4.324;2024-02-15T00:42:14;13.30;99.90
22436;DHT22;11385;50.822;4.324;2024-02-15T00:44:41;13.50;99.90
22436;DHT22;11385;50.822;4.324;2024-02-15T00:47:09;13.50;99.90
22436;DHT22;11385;50.822;4.324;2024-02-15T00:49:38;13.50;99.90
22436;DHT22;11385;50.822;4.324;2024-02-15T00:52:05;13.50;99.90
22436;DHT22;11385;50.822;4.324;2024-02-15T00:54:32;13.50;99.90
22436;DHT22;11385;50.822;4.324;2024-02-15T00:56:58;13.40;99.90
22436;DHT22;11385;50.822;4.324;2024-02-15T00:59:25;13.40;99.90
22436;DHT22;11385;50.822;4.324;2024-02-15T01:01:52;13.40;99.90
22436;DHT22;11385;50.822;4.324;2024-02-15T01:04:19;13.40;99.90
22436;DHT22;11385;50.822;4.324;2024-02-15T01:06:46;13.40;99.90
22436;DHT22;11385;50.822;4.324;2024-02-15T01:09:13;13.30;99.90
22436;DHT22;11385;50.822;4.324;2024-02-15T01:11:40;13.30;99.90
22436;DHT22;11385;50.822;4.324;2024-02-15T01:14:07;13.50;99.90
22436;DHT22;11385;50.822;4.324;2024-02-15T01:16:36;13.50;99.90
22436;DHT22;11385;50.822;4.324;2024-02-15T01:19:03;13.50;99.90
22436;DHT22;11385;50.822;4.324;2024-02-15T01:21:30;13.60;99.90
22436;DHT22;11385;50.822;4.324;2024-02-15T01:23:59;13.50;99.90
22436;DHT22;11385;50.822;4.324;2024-02-15T01:26:27;13.50;99.90
22436;DHT22;11385;50.822;4.324;2024-02-15T01:28:54;13.50;99.90
22436;DHT22;11385;50.822;4.324;2024-02-15T01:31:21;13.60;99.90
22436;DHT22;11385;50.822;4.324;2024-02-15T01:33:48;13.60;99.90
22436;DHT22;11385;50.822;4.324;2024-02-15T01:36:16;13.50;99.90
22436;DHT22;11385;50.822;4.324;2024-02-15T01:38:43;13.40;99.90
22436;DHT22;11385;50.822;4.324;2024-02-15T01:41:11;13.40;99.90
22436;DHT22;11385;50.822;4.324;2024-02-15T01:43:43;13.30;99.90
22436;DHT22;11385;50.822;4.324;2024-02-15T01:46:08;13.10;99.90
22436;DHT22;11385;50.822;4.324;2024-02-15T01:48:37;13.10;99.90
22436;DHT22;11385;50.822;4.324;2024-02-15T01:51:07;13.00;99.90
22436;DHT22;11385;50.822;4.324;2024-02-15T01:53:36;13.10;99.90
22436;DHT22;11385;50.822;4.324;2024-02-15T01:56:05;13.00;99.90
22436;DHT22;11385;50.822;4.324;2024-02-15T01:58:32;13.00;99.90
22436;DHT22;11385;50.822;4.324;2024-02-15T02:01:00;13.00;99.90
22436;DHT22;11385;50.822;4.324;2024-02-15T02:03:28;13.10;99.90
22436;DHT22;11385;50.822;4.324;2024-02-15T02:05:56;13.20;99.90
22436;DHT22;11385;50.822;4.324;2024-02-15T02:08:23;13.20;99.90
22436;DHT22;11385;50.822;4.324;2024-02-15T02:10:52;13.10;99.90
22436;DHT22;11385;50.822;4.324;2024-02-15T02:13:19;13.10;99.90
22436;DHT22;11385;50.822;4.324;2024-02-15T02:15:46;13.10;99.90
22436;DHT22;11385;50.822;4.324;2024-02-15T02:18:12;13.10;99.90
22436;DHT22;11385;50.822;4.324;2024-02-15T02:20:40;13.00;99.90
22436;DHT22;11385;50.822;4.324;2024-02-15T02:23:15;13.00;99.90
22436;DHT22;11385;50.822;4.324;2024-02-15T02:25:44;12.90;99.90
22436;DHT22;11385;50.822;4.324;2024-02-15T02:28:13;12.80;99.90
22436;DHT22;11385;50.822;4.324;2024-02-15T02:30:41;12.90;99.90
22436;DHT22;11385;50.822;4.324;2024-02-15T02:33:12;12.90;99.90
22436;DHT22;11385;50.822;4.324;2024-02-15T02:35:40;13.00;99.90
22436;DHT22;11385;50.822;4.324;2024-02-15T02:38:07;13.00;99.90
22436;DHT22;11385;50.822;4.324;2024-02-15T02:40:34;13.00;99.90
22436;DHT22;11385;50.822;4.324;2024-02-15T02:43:02;13.00;99.90
22436;DHT22;11385;50.822;4.324;2024-02-15T02:45:28;12.90;99.90
22436;DHT22;11385;50.822;4.324;2024-02-15T02:47:55;12.90;99.90
22436;DHT22;11385;50.822;4.324;2024-02-15T02:50:22;12.90;99.90
22436;DHT22;11385;50.822;4.324;2024-02-15T02:52:49;13.00;99.90
22436;DHT22;11385;50.822;4.324;2024-02-15T02:55:16;13.00;99.90
22436;DHT22;11385;50.822;4.324;2024-02-15T02:57:43;12.90;99.90
22436;DHT22;11385;50.822;4.324;2024-02-15T03:00:12;13.00;99.90
22436;DHT22;11385;50.822;4.324;2024-02-15T03:02:43;13.00;99.90
22436;DHT22;11385;50.822;4.324;2024-02-15T03:05:10;13.00;99.90
22436;DHT22;11385;50.822;4.324;2024-02-15T03:07:38;13.10;99.90
22436;DHT22;11385;50.822;4.324;2024-02-15T03:10:07;13.10;99.90
22436;DHT22;11385;50.822;4.324;2024-02-15T03:12:36;13.10;99.90
22436;DHT22;11385;50.822;4.324;2024-02-15T03:15:05;13.00;99.90
22436;DHT22;11385;50.822;4.324;2024-02-15T03:17:39;13.00;99.90
22436;DHT22;11385;50.822;4.324;2024-02-15T03:20:06;12.90;99.90
22436;DHT22;11385;50.822;4.324;2024-02-15T03:22:53;12.90;99.90
22436;DHT22;11385;50.822;4.324;2024-02-15T03:25:20;12.90;99.90
22436;DHT22;11385;50.822;4.324;2024-02-15T03:27:51;12.90;99.90
22436;DHT22;11385;50.822;4.324;2024-02-15T03:30:19;12.80;99.90
22436;DHT22;11385;50.822;4.324;2024-02-15T03:32:47;12.80;99.90
22436;DHT22;11385;50.822;4.324;2024-02-15T03:35:18;12.90;99.90
22436;DHT22;11385;50.822;4.324;2024-02-15T03:37:45;12.90;99.90
22436;DHT22;11385;50.822;4.324;2024-02-15T03:40:12;12.90;99.90
22436;DHT22;11385;50.822;4.324;2024-02-15T03:42:40;12.90;99.90
22436;DHT22;11385;50.822;4.324;2024-02-15T03:45:07;13.00;99.90
22436;DHT22;11385;50.822;4.324;2024-02-15T03:47:35;12.90;99.90
22436;DHT22;11385;50.822;4.324;2024-02-15T03:50:03;12.90;99.90
22436;DHT22;11385;50.822;4.324;2024-02-15T03:52:31;13.00;99.90
22436;DHT22;11385;50.822;4.324;2024-02-15T03:54:58;13.10;99.90
22436;DHT22;11385;50.822;4.324;2024-02-15T03:57:26;13.10;99.90
22436;DHT22;11385;50.822;4.324;2024-02-15T03:59:52;13.00;99.90
22436;DHT22;11385;50.822;4.324;2024-02-15T04:02:20;12.90;99.90
22436;DHT22;11385;50.822;4.324;2024-02-15T04:04:49;12.80;99.90
22436;DHT22;11385;50.822;4.324;2024-02-15T04:07:19;12.80;99.90
22436;DHT22;11385;50.822;4.324;2024-02-15T04:09:46;12.70;99.90
22436;DHT22;11385;50.822;4.324;2024-02-15T04:12:12;12.80;99.90
22436;DHT22;11385;50.822;4.324;2024-02-15T04:14:41;12.80;99.90
22436;DHT22;11385;50.822;4.324;2024-02-15T04:17:09;12.80;99.90
22436;DHT22;11385;50.822;4.324;2024-02-15T04:19:36;12.80;99.90
22436;DHT22;11385;50.822;4.324;2024-02-15T04:22:03;12.70;99.90
22436;DHT22;11385;50.822;4.324;2024-02-15T04:24:32;12.70;99.90
22436;DHT22;11385;50.822;4.324;2024-02-15T04:26:59;12.60;99.90
22436;DHT22;11385;50.822;4.324;2024-02-15T04:29:25;12.70;99.90
22436;DHT22;11385;50.822;4.324;2024-02-15T04:31:52;12.70;99.90
22436;DHT22;11385;50.822;4.324;2024-02-15T04:34:20;12.70;99.90
22436;DHT22;11385;50.822;4.324;2024-02-15T04:36:48;12.70;99.90
22436;DHT22;11385;50.822;4.324;2024-02-15T04:39:17;12.60;99.90
22436;DHT22;11385;50.822;4.324;2024-02-15T04:41:51;12.70;99.90
22436;DHT22;11385;50.822;4.324;2024-02-15T04:44:18;12.80;99.90
22436;DHT22;11385;50.822;4.324;2024-02-15T04:46:46;12.70;99.90
22436;DHT22;11385;50.822;4.324;2024-02-15T04:49:15;12.80;99.90
22436;DHT22;11385;50.822;4.324;2024-02-15T04:51:42;12.80;99.90
22436;DHT22;11385;50.822;4.324;2024-02-15T04:54:10;12.70;99.90
22436;DHT22;11385;50.822;4.324;2024-02-15T04:56:40;12.60;99.90
22436;DHT22;11385;50.822;4.324;2024-02-15T04:59:09;12.70;99.90
22436;DHT22;11385;50.822;4.324;2024-02-15T05:01:41;12.60;99.90
22436;DHT22;11385;50.822;4.324;2024-02-15T05:04:10;12.70;99.90
22436;DHT22;11385;50.822;4.324;2024-02-15T05:06:38;12.60;99.90
22436;DHT22;11385;50.822;4.324;2024-02-15T05:09:05;12.60;99.90
22436;DHT22;11385;50.822;4.324;2024-02-15T05:11:36;12.60;99.90
22436;DHT22;11385;50.822;4.324;2024-02-15T05:14:05;12.60;99.90
22436;DHT22;11385;50.822;4.324;2024-02-15T05:16:33;12.70;99.90
22436;DHT22;11385;50.822;4.324;2024-02-15T05:19:00;12.60;99.90
22436;DHT22;11385;50.822;4.324;2024-02-15T05:21:28;12.70;99.90
22436;DHT22;11385;50.822;4.324;2024-02-15T05:23:56;12.70;99.90
22436;DHT22;11385;50.822;4.324;2024-02-15T05:26:23;12.60;99.90
22436;DHT22;11385;50.822;4.324;2024-02-15T05:28:50;12.60;99.90
22436;DHT22;11385;50.822;4.324;2024-02-15T05:31:19;12.60;99.90
22436;DHT22;11385;50.822;4.324;2024-02-15T05:33:47;12.60;99.90
22436;DHT22;11385;50.822;4.324;2024-02-15T05:36:14;12.60;99.90
22436;DHT22;11385;50.822;4.324;2024-02-15T05:38:41;12.60;99.90
22436;DHT22;11385;50.822;4.324;2024-02-15T05:41:10;12.60;99.90
22436;DHT22;11385;50.822;4.324;2024-02-15T05:43:38;12.50;99.90
22436;DHT22;11385;50.822;4.324;2024-02-15T05:46:08;12.60;99.90
22436;DHT22;11385;50.822;4.324;2024-02-15T05:48:35;12.60;99.90
22436;DHT22;11385;50.822;4.324;2024-02-15T05:51:04;12.70;99.90
22436;DHT22;11385;50.822;4.324;2024-02-15T05:53:31;12.70;99.90
22436;DHT22;11385;50.822;4.324;2024-02-15T05:56:09;12.80;99.90
22436;DHT22;11385;50.822;4.324;2024-02-15T05:58:37;12.80;99.90
22436;DHT22;11385;50.822;4.324;2024-02-15T06:01:06;12.90;99.90
22436;DHT22;11385;50.822;4.324;2024-02-15T06:03:34;13.10;99.90
22436;DHT22;11385;50.822;4.324;2024-02-15T06:06:04;13.00;99.90
22436;DHT22;11385;50.822;4.324;2024-02-15T06:08:33;13.10;99.90
22436;DHT22;11385;50.822;4.324;2024-02-15T06:11:00;13.10;99.90
22436;DHT22;11385;50.822;4.324;2024-02-15T06:13:28;13.10;99.90
22436;DHT22;11385;50.822;4.324;2024-02-15T06:15:54;13.10;99.90
22436;DHT22;11385;50.822;4.324;2024-02-15T06:18:22;13.10;99.90
22436;DHT22;11385;50.822;4.324;2024-02-15T06:20:51;13.20;99.90
22436;DHT22;11385;50.822;4.324;2024-02-15T06:23:18;13.30;99.90
22436;DHT22;11385;50.822;4.324;2024-02-15T06:25:46;13.30;99.90
22436;DHT22;11385;50.822;4.324;2024-02-15T06:28:14;13.20;99.90
22436;DHT22;11385;50.822;4.324;2024-02-15T06:30:47;13.10;99.90
22436;DHT22;11385;50.822;4.324;2024-02-15T06:33:20;13.20;99.90
22436;DHT22;11385;50.822;4.324;2024-02-15T06:35:52;13.20;99.90
22436;DHT22;11385;50.822;4.324;2024-02-15T06:38:24;13.30;99.90
22436;DHT22;11385;50.822;4.324;2024-02-15T06:40:57;13.30;99.90
22436;DHT22;11385;50.822;4.324;2024-02-15T06:43:24;13.20;99.90
22436;DHT22;11385;50.822;4.324;2024-02-15T06:45:51;13.20;99.90
22436;DHT22;11385;50.822;4.324;2024-02-15T06:48:18;13.10;99.90
22436;DHT22;11385;50.822;4.324;2024-02-15T06:50:48;13.20;99.90
22436;DHT22;11385;50.822;4.324;2024-02-15T06:53:15;13.10;99.90
22436;DHT22;11385;50.822;4.324;2024-02-15T06:55:42;13.10;99.90
22436;DHT22;11385;50.822;4.324;2024-02-15T06:58:10;13.20;99.90
22436;DHT22;11385;50.822;4.324;2024-02-15T07:00:39;13.30;99.90
22436;DHT22;11385;50.822;4.324;2024-02-15T07:03:06;13.20;99.90
22436;DHT22;11385;50.822;4.324;2024-02-15T07:05:35;13.40;99.90
22436;DHT22;11385;50.822;4.324;2024-02-15T07:08:01;13.30;99.90
22436;DHT22;11385;50.822;4.324;2024-02-15T07:10:28;13.40;99.90
22436;DHT22;11385;50.822;4.324;2024-02-15T07:12:56;13.30;99.90
22436;DHT22;11385;50.822;4.324;2024-02-15T07:15:23;13.30;99.90
22436;DHT22;11385;50.822;4.324;2024-02-15T07:17:50;13.30;99.90
22436;DHT22;11385;50.822;4.324;2024-02-15T07:20:18;13.30;99.90
22436;DHT22;11385;50.822;4.324;2024-02-15T07:22:45;13.50;99.90
22436;DHT22;11385;50.822;4.324;2024-02-15T07:25:13;13.50;99.90
22436;DHT22;11385;50.822;4.324;2024-02-15T07:27:40;13.50;99.90
22436;DHT22;11385;50.822;4.324;2024-02-15T07:30:08;13.60;99.90
22436;DHT22;11385;50.822;4.324;2024-02-15T07:32:35;13.60;99.90
22436;DHT22;11385;50.822;4.324;2024-02-15T07:35:02;13.70;99.90
22436;DHT22;11385;50.822;4.324;2024-02-15T07:37:31;13.60;99.90
22436;DHT22;11385;50.822;4.324;2024-02-15T07:39:58;13.60;99.90
22436;DHT22;11385;50.822;4.324;2024-02-15T07:42:25;13.60;99.90
22436;DHT22;11385;50.822;4.324;2024-02-15T07:44:52;13.50;99.90
22436;DHT22;11385;50.822;4.324;2024-02-15T07:47:19;13.60;99.90
22436;DHT22;11385;50.822;4.324;2024-02-15T07:49:47;13.70;99.90
22436;DHT22;11385;50.822;4.324;2024-02-15T07:52:15;13.80;99.90
22436;DHT22;11385;50.822;4.324;2024-02-15T07:54:41;13.80;99.90
22436;DHT22;11385;50.822;4.324;2024-02-15T07:57:08;13.90;99.90
22436;DHT22;11385;50.822;4.324;2024-02-15T07:59:35;13.90;99.90
22436;DHT22;11385;50.822;4.324;2024-02-15T08:02:02;14.00;99.90
22436;DHT22;11385;50.822;4.324;2024-02-15T08:04:28;13.90;99.90
22436;DHT22;11385;50.822;4.324;2024-02-15T08:06:55;14.10;99.90
22436;DHT22;11385;50.822;4.324;2024-02-15T08:09:22;14.10;99.90
22436;DHT22;11385;50.822;4.324;2024-02-15T08:11:50;14.10;99.90
22436;DHT22;11385;50.822;4.324;2024-02-15T08:14:17;14.00;99.90
22436;DHT22;11385;50.822;4.324;2024-02-15T08:16:46;14.20;99.90
22436;DHT22;11385;50.822;4.324;2024-02-15T08:19:13;14.30;99.90
22436;DHT22;11385;50.822;4.324;2024-02-15T08:21:39;14.20;99.90
22436;DHT22;11385;50.822;4.324;2024-02-15T08:24:08;14.30;99.90
22436;DHT22;11385;50.822;4.324;2024-02-15T08:26:36;14.30;99.90
22436;DHT22;11385;50.822;4.324;2024-02-15T08:29:05;14.30;99.90
22436;DHT22;11385;50.822;4.324;2024-02-15T08:31:33;14.40;99.90
22436;DHT22;11385;50.822;4.324;2024-02-15T08:34:02;14.40;99.90
22436;DHT22;11385;50.822;4.324;2024-02-15T08:36:31;14.50;99.90
22436;DHT22;11385;50.822;4.324;2024-02-15T08:38:58;14.40;99.90
22436;DHT22;11385;50.822;4.324;2024-02-15T08:41:26;14.50;99.90
22436;DHT22;11385;50.822;4.324;2024-02-15T08:43:53;14.60;99.90
22436;DHT22;11385;50.822;4.324;2024-02-15T08:46:22;14.80;99.90
22436;DHT22;11385;50.822;4.324;2024-02-15T08:48:50;14.70;99.90
22436;DHT22;11385;50.822;4.324;2024-02-15T08:51:17;14.70;99.90
22436;DHT22;11385;50.822;4.324;2024-02-15T08:53:46;14.80;99.90
22436;DHT22;11385;50.822;4.324;2024-02-15T08:56:13;14.90;99.90
22436;DHT22;11385;50.822;4.324;2024-02-15T08:58:40;15.10;99.90
22436;DHT22;11385;50.822;4.324;2024-02-15T09:01:08;15.10;99.90
22436;DHT22;11385;50.822;4.324;2024-02-15T09:03:35;15.10;99.90
22436;DHT22;11385;50.822;4.324;2024-02-15T09:06:02;15.20;99.90
22436;DHT22;11385;50.822;4.324;2024-02-15T09:08:31;15.30;99.90
22436;DHT22;11385;50.822;4.324;2024-02-15T09:10:58;15.30;99.90
22436;DHT22;11385;50.822;4.324;2024-02-15T09:13:25;15.20;99.90
22436;DHT22;11385;50.822;4.324;2024-02-15T09:15:52;15.30;99.90
22436;DHT22;11385;50.822;4.324;2024-02-15T09:18:18;15.40;99.90
22436;DHT22;11385;50.822;4.324;2024-02-15T09:20:47;15.60;99.90
22436;DHT22;11385;50.822;4.324;2024-02-15T09:23:15;15.60;99.90
22436;DHT22;11385;50.822;4.324;2024-02-15T09:25:42;15.50;99.90
22436;DHT22;11385;50.822;4.324;2024-02-15T09:28:10;15.50;99.90
22436;DHT22;11385;50.822;4.324;2024-02-15T09:30:37;15.60;99.90
22436;DHT22;11385;50.822;4.324;2024-02-15T09:33:04;15.60;99.90
22436;DHT22;11385;50.822;4.324;2024-02-15T09:35:31;15.60;99.90
22436;DHT22;11385;50.822;4.324;2024-02-15T09:37:58;15.80;99.90
22436;DHT22;11385;50.822;4.324;2024-02-15T09:40:25;15.80;99.90
22436;DHT22;11385;50.822;4.324;2024-02-15T09:42:53;15.90;99.90
22436;DHT22;11385;50.822;4.324;2024-02-15T09:45:20;15.90;99.90
22436;DHT22;11385;50.822;4.324;2024-02-15T09:47:49;15.80;99.90
22436;DHT22;11385;50.822;4.324;2024-02-15T09:50:17;15.70;99.90
22436;DHT22;11385;50.822;4.324;2024-02-15T09:52:51;15.60;99.90
22436;DHT22;11385;50.822;4.324;2024-02-15T09:55:18;15.70;99.90
22436;DHT22;11385;50.822;4.324;2024-02-15T09:57:46;15.70;99.90
22436;DHT22;11385;50.822;4.324;2024-02-15T10:00:14;15.70;99.90
22436;DHT22;11385;50.822;4.324;2024-02-15T10:02:42;15.60;99.90
22436;DHT22;11385;50.822;4.324;2024-02-15T10:05:11;15.90;99.90
22436;DHT22;11385;50.822;4.324;2024-02-15T10:07:41;16.00;99.90
22436;DHT22;11385;50.822;4.324;2024-02-15T10:10:18;16.10;99.90
22436;DHT22;11385;50.822;4.324;2024-02-15T10:12:47;16.10;99.90
22436;DHT22;11385;50.822;4.324;2024-02-15T10:17:54;16.40;99.90
22436;DHT22;11385;50.822;4.324;2024-02-15T10:20:22;16.20;99.90
22436;DHT22;11385;50.822;4.324;2024-02-15T10:23:13;16.10;99.90
22436;DHT22;11385;50.822;4.324;2024-02-15T10:25:44;16.20;99.90
22436;DHT22;11385;50.822;4.324;2024-02-15T10:28:12;16.30;99.90
22436;DHT22;11385;50.822;4.324;2024-02-15T10:30:41;16.50;99.90
22436;DHT22;11385;50.822;4.324;2024-02-15T10:33:09;16.50;99.90
22436;DHT22;11385;50.822;4.324;2024-02-15T10:35:36;16.40;99.90
22436;DHT22;11385;50.822;4.324;2024-02-15T10:38:06;16.30;99.90
22436;DHT22;11385;50.822;4.324;2024-02-15T10:40:34;16.40;99.90
22436;DHT22;11385;50.822;4.324;2024-02-15T10:43:03;16.70;99.90
22436;DHT22;11385;50.822;4.324;2024-02-15T10:45:32;16.80;99.90
22436;DHT22;11385;50.822;4.324;2024-02-15T10:48:00;16.50;99.90
22436;DHT22;11385;50.822;4.324;2024-02-15T10:50:27;16.70;99.90
22436;DHT22;11385;50.822;4.324;2024-02-15T10:52:56;16.90;99.90
22436;DHT22;11385;50.822;4.324;2024-02-15T10:55:35;17.00;99.90
22436;DHT22;11385;50.822;4.324;2024-02-15T10:58:02;17.10;99.90
22436;DHT22;11385;50.822;4.324;2024-02-15T11:00:33;17.10;99.90
22436;DHT22;11385;50.822;4.324;2024-02-15T11:03:04;17.10;99.90
22436;DHT22;11385;50.822;4.324;2024-02-15T11:05:33;17.10;99.90
22436;DHT22;11385;50.822;4.324;2024-02-15T11:08:03;17.20;99.90
22436;DHT22;11385;50.822;4.324;2024-02-15T11:10:31;17.20;99.90
22436;DHT22;11385;50.822;4.324;2024-02-15T11:12:59;17.50;99.90
22436;DHT22;11385;50.822;4.324;2024-02-15T11:15:43;17.30;99.90
22436;DHT22;11385;50.822;4.324;2024-02-15T11:20:51;17.20;99.90
22436;DHT22;11385;50.822;4.324;2024-02-15T11:23:24;17.30;99.90
22436;DHT22;11385;50.822;4.324;2024-02-15T11:25:52;17.60;99.90
22436;DHT22;11385;50.822;4.324;2024-02-15T11:28:37;17.80;99.90
22436;DHT22;11385;50.822;4.324;2024-02-15T11:31:08;17.60;99.90
22436;DHT22;11385;50.822;4.324;2024-02-15T11:33:38;17.40;99.90
22436;DHT22;11385;50.822;4.324;2024-02-15T11:36:08;17.40;99.90
22436;DHT22;11385;50.822;4.324;2024-02-15T11:38:36;17.70;99.90
22436;DHT22;11385;50.822;4.324;2024-02-15T11:41:05;17.80;99.90
22436;DHT22;11385;50.822;4.324;2024-02-15T11:43:47;17.80;99.90
22436;DHT22;11385;50.822;4.324;2024-02-15T11:46:16;17.70;99.90
22436;DHT22;11385;50.822;4.324;2024-02-15T11:48:46;17.50;99.90
22436;DHT22;11385;50.822;4.324;2024-02-15T11:51:26;17.50;99.90
22436;DHT22;11385;50.822;4.324;2024-02-15T11:54:03;17.40;99.90
22436;DHT22;11385;50.822;4.324;2024-02-15T11:59:07;17.20;99.90
22436;DHT22;11385;50.822;4.324;2024-02-15T12:01:33;17.40;99.90
22436;DHT22;11385;50.822;4.324;2024-02-15T12:04:06;17.60;99.90
22436;DHT22;11385;50.822;4.324;2024-02-15T12:06:38;17.90;99.90
22436;DHT22;11385;50.822;4.324;2024-02-15T12:09:11;17.80;99.90
22436;DHT22;11385;50.822;4.324;2024-02-15T12:11:43;17.60;99.90
22436;DHT22;11385;50.822;4.324;2024-02-15T12:14:16;17.50;99.90
22436;DHT22;11385;50.822;4.324;2024-02-15T12:17:06;17.30;99.90
22436;DHT22;11385;50.822;4.324;2024-02-15T12:19:38;17.30;99.90
22436;DHT22;11385;50.822;4.324;2024-02-15T12:22:06;17.20;99.90
22436;DHT22;11385;50.822;4.324;2024-02-15T12:24:35;17.30;99.90
22436;DHT22;11385;50.822;4.324;2024-02-15T12:27:01;17.40;99.90
22436;DHT22;11385;50.822;4.324;2024-02-15T12:29:29;17.70;99.90
22436;DHT22;11385;50.822;4.324;2024-02-15T12:31:56;17.80;99.90
22436;DHT22;11385;50.822;4.324;2024-02-15T12:34:23;17.90;99.90
22436;DHT22;11385;50.822;4.324;2024-02-15T12:36:50;17.80;99.90
22436;DHT22;11385;50.822;4.324;2024-02-15T12:39:27;17.70;99.90
22436;DHT22;11385;50.822;4.324;2024-02-15T12:41:57;17.60;99.90
22436;DHT22;11385;50.822;4.324;2024-02-15T12:44:24;17.70;99.90
22436;DHT22;11385;50.822;4.324;2024-02-15T12:46:55;17.90;99.90
22436;DHT22;11385;50.822;4.324;2024-02-15T12:49:30;17.90;99.90
22436;DHT22;11385;50.822;4.324;2024-02-15T12:52:37;18.00;99.90
22436;DHT22;11385;50.822;4.324;2024-02-15T12:54:49;18.00;99.90
22436;DHT22;11385;50.822;4.324;2024-02-15T12:57:16;18.20;99.90
22436;DHT22;11385;50.822;4.324;2024-02-15T12:59:44;18.00;99.90
22436;DHT22;11385;50.822;4.324;2024-02-15T13:02:10;17.80;99.90
22436;DHT22;11385;50.822;4.324;2024-02-15T13:04:39;17.90;99.90
22436;DHT22;11385;50.822;4.324;2024-02-15T13:07:05;18.10;99.90
22436;DHT22;11385;50.822;4.324;2024-02-15T13:09:34;18.00;99.90
22436;DHT22;11385;50.822;4.324;2024-02-15T13:12:01;18.30;99.90
22436;DHT22;11385;50.822;4.324;2024-02-15T13:14:29;18.20;99.90
22436;DHT22;11385;50.822;4.324;2024-02-15T13:16:56;18.10;99.90
22436;DHT22;11385;50.822;4.324;2024-02-15T13:19:23;18.10;99.90
22436;DHT22;11385;50.822;4.324;2024-02-15T13:21:50;18.30;99.90
22436;DHT22;11385;50.822;4.324;2024-02-15T13:24:19;18.50;99.90
22436;DHT22;11385;50.822;4.324;2024-02-15T13:26:48;18.50;99.90
22436;DHT22;11385;50.822;4.324;2024-02-15T13:29:15;18.50;99.90
22436;DHT22;11385;50.822;4.324;2024-02-15T13:31:41;18.60;99.90
22436;DHT22;11385;50.822;4.324;2024-02-15T13:34:09;18.70;99.90
22436;DHT22;11385;50.822;4.324;2024-02-15T13:36:37;18.80;99.90
22436;DHT22;11385;50.822;4.324;2024-02-15T13:39:05;19.00;99.90
22436;DHT22;11385;50.822;4.324;2024-02-15T13:41:33;18.70;99.90
22436;DHT22;11385;50.822;4.324;2024-02-15T13:44:00;18.80;99.90
22436;DHT22;11385;50.822;4.324;2024-02-15T13:46:27;18.80;99.90
22436;DHT22;11385;50.822;4.324;2024-02-15T13:48:53;18.80;99.90
22436;DHT22;11385;50.822;4.324;2024-02-15T13:51:20;18.80;99.90
22436;DHT22;11385;50.822;4.324;2024-02-15T13:53:46;18.70;99.90
22436;DHT22;11385;50.822;4.324;2024-02-15T13:56:13;18.60;99.90
22436;DHT22;11385;50.822;4.324;2024-02-15T13:58:42;18.30;99.90
22436;DHT22;11385;50.822;4.324;2024-02-15T14:01:08;18.20;99.90
22436;DHT22;11385;50.822;4.324;2024-02-15T14:03:37;18.10;99.90
22436;DHT22;11385;50.822;4.324;2024-02-15T14:06:04;18.00;99.90
22436;DHT22;11385;50.822;4.324;2024-02-15T14:08:30;18.00;99.90
22436;DHT22;11385;50.822;4.324;2024-02-15T14:10:57;18.00;99.90
22436;DHT22;11385;50.822;4.324;2024-02-15T14:13:23;18.00;99.90
22436;DHT22;11385;50.822;4.324;2024-02-15T14:15:51;18.00;99.90
22436;DHT22;11385;50.822;4.324;2024-02-15T14:18:18;18.00;99.90
22436;DHT22;11385;50.822;4.324;2024-02-15T14:20:45;17.90;99.90
22436;DHT22;11385;50.822;4.324;2024-02-15T14:23:14;17.90;99.90
22436;DHT22;11385;50.822;4.324;2024-02-15T14:25:41;18.00;99.90
22436;DHT22;11385;50.822;4.324;2024-02-15T14:28:08;17.90;99.90
22436;DHT22;11385;50.822;4.324;2024-02-15T14:30:35;18.00;99.90
22436;DHT22;11385;50.822;4.324;2024-02-15T14:33:08;17.90;99.90
22436;DHT22;11385;50.822;4.324;2024-02-15T14:35:38;17.90;99.90
22436;DHT22;11385;50.822;4.324;2024-02-15T14:38:07;17.90;99.90
22436;DHT22;11385;50.822;4.324;2024-02-15T14:40:39;17.90;99.90
22436;DHT22;11385;50.822;4.324;2024-02-15T14:43:06;18.00;99.90
22436;DHT22;11385;50.822;4.324;2024-02-15T14:45:35;18.00;99.90
22436;DHT22;11385;50.822;4.324;2024-02-15T14:48:03;18.00;99.90
22436;DHT22;11385;50.822;4.324;2024-02-15T14:50:29;18.10;99.90
22436;DHT22;11385;50.822;4.324;2024-02-15T14:52:56;18.20;99.90
22436;DHT22;11385;50.822;4.324;2024-02-15T14:55:23;17.90;99.90
22436;DHT22;11385;50.822;4.324;2024-02-15T14:57:49;17.80;99.90
22436;DHT22;11385;50.822;4.324;2024-02-15T15:00:16;17.80;99.90
22436;DHT22;11385;50.822;4.324;2024-02-15T15:02:45;17.70;99.90
22436;DHT22;11385;50.822;4.324;2024-02-15T15:05:14;17.70;99.90
22436;DHT22;11385;50.822;4.324;2024-02-15T15:07:46;17.80;99.90
22436;DHT22;11385;50.822;4.324;2024-02-15T15:10:19;17.80;99.90
22436;DHT22;11385;50.822;4.324;2024-02-15T15:12:51;17.80;99.90
22436;DHT22;11385;50.822;4.324;2024-02-15T15:15:18;17.70;99.90
22436;DHT22;11385;50.822;4.324;2024-02-15T15:17:45;17.70;99.90
22436;DHT22;11385;50.822;4.324;2024-02-15T15:20:13;17.70;99.90
22436;DHT22;11385;50.822;4.324;2024-02-15T15:22:42;17.80;99.90
22436;DHT22;11385;50.822;4.324;2024-02-15T15:25:10;17.70;99.90
22436;DHT22;11385;50.822;4.324;2024-02-15T15:27:36;17.80;99.90
22436;DHT22;11385;50.822;4.324;2024-02-15T15:30:04;17.80;99.90
22436;DHT22;11385;50.822;4.324;2024-02-15T15:32:32;17.90;99.90
22436;DHT22;11385;50.822;4.324;2024-02-15T15:35:00;17.90;99.90
22436;DHT22;11385;50.822;4.324;2024-02-15T15:37:27;17.90;99.90
22436;DHT22;11385;50.822;4.324;2024-02-15T15:39:54;17.90;99.90
22436;DHT22;11385;50.822;4.324;2024-02-15T15:42:22;17.90;99.90
22436;DHT22;11385;50.822;4.324;2024-02-15T15:44:48;17.70;99.90